Kt Birdie — 3FUJ7 — position and weather

sailwx.info

Track history (hours):
 
Tides and Currents Weather Stations Pressure Air Temp Water Temp Dewpoint Dewpoint Depression Visibility Wind Speed Wind Dir Waves Ship Positions

Kt Birdie

Last reported at 2016-Dec-08 06:29 UTC. Time now 2016-Dec-08 22:11 UTC.
Position S 28°13' E 154°17'.

Length 225 m; draft 7.3 m.

Type: Cargo ship. MMSI: 354803000.

Date/timePositionNaut miles runAvg speedWind from/ knotsBaromVisibWave heightAir tempDewpointWater temp
2016-Dec-08 06:29S 28°13' E 154°17'1111.5
2016-Dec-08 05:31S 28°02' E 154°12'1212.6
2016-Dec-08 04:33S 27°50' E 154°15'1515.0
2016-Dec-08 03:33S 27°35' E 154°15'1515.1
2016-Dec-08 02:33S 27°20' E 154°16'1915.1
2016-Dec-08 01:16S 27°01' E 154°19'1114.9
2016-Dec-08 00:33S 26°50' E 154°20'1614.8
2016-Dec-07 23:30S 26°35' E 154°22'1414.9
2016-Dec-07 22:33S 26°21' E 154°23'  
Track history (hours):
 
Tides and Currents Weather Stations Pressure Air Temp Water Temp Dewpoint Dewpoint Depression Visibility Wind Speed Wind Dir Waves Ship Positions

Kt Birdie

Last reported at 2016-Dec-08 06:29 UTC. Time now 2016-Dec-08 22:11 UTC.
Position S 28°13' E 154°17'.

Length 225 m; draft 7.3 m.

Type: Cargo ship. MMSI: 354803000.

Date/timePositionNaut miles runAvg speedWind from/ knotsBaromVisibWave heightAir tempDewpointWater temp
2016-Dec-08 06:29S 28°13' E 154°17'1111.5
2016-Dec-08 05:31S 28°02' E 154°12'1212.6
2016-Dec-08 04:33S 27°50' E 154°15'1515.0
2016-Dec-08 03:33S 27°35' E 154°15'1515.1
2016-Dec-08 02:33S 27°20' E 154°16'1915.1
2016-Dec-08 01:16S 27°01' E 154°19'1114.9
2016-Dec-08 00:33S 26°50' E 154°20'1614.8
2016-Dec-07 23:30S 26°35' E 154°22'1414.9
2016-Dec-07 22:33S 26°21' E 154°23'  

Dump ship's entire track history